sensor_id;sensor_type;location;lat;lon;timestamp;pressure;altitude;pressure_sealevel;temperature;humidity
18900;BME280;9582;52.018;6.306;2023-08-07T00:00:57;101260.53;;;13.50;63.40
18900;BME280;9582;52.018;6.306;2023-08-07T00:03:23;101260.69;;;13.47;63.47
18900;BME280;9582;52.018;6.306;2023-08-07T00:05:50;101262.41;;;13.48;63.53
18900;BME280;9582;52.018;6.306;2023-08-07T00:08:17;101248.50;;;13.46;63.55
18900;BME280;9582;52.018;6.306;2023-08-07T00:10:44;101260.84;;;13.44;63.52
18900;BME280;9582;52.018;6.306;2023-08-07T00:13:11;101259.22;;;13.42;63.49
18900;BME280;9582;52.018;6.306;2023-08-07T00:15:38;101249.72;;;13.39;63.31
18900;BME280;9582;52.018;6.306;2023-08-07T00:18:04;101254.09;;;13.39;63.09
18900;BME280;9582;52.018;6.306;2023-08-07T00:20:31;101254.19;;;13.37;62.96
18900;BME280;9582;52.018;6.306;2023-08-07T00:22:57;101247.22;;;13.36;62.80
18900;BME280;9582;52.018;6.306;2023-08-07T00:25:24;101243.84;;;13.34;62.66
18900;BME280;9582;52.018;6.306;2023-08-07T00:27:50;101245.63;;;13.34;62.50
18900;BME280;9582;52.018;6.306;2023-08-07T00:30:18;101247.38;;;13.33;62.34
18900;BME280;9582;52.018;6.306;2023-08-07T00:32:45;101242.22;;;13.32;62.17
18900;BME280;9582;52.018;6.306;2023-08-07T00:35:11;101243.22;;;13.29;61.97
18900;BME280;9582;52.018;6.306;2023-08-07T00:37:38;101242.28;;;13.30;61.77
18900;BME280;9582;52.018;6.306;2023-08-07T00:40:06;101249.31;;;13.29;61.56
18900;BME280;9582;52.018;6.306;2023-08-07T00:42:32;101249.31;;;13.29;61.43
18900;BME280;9582;52.018;6.306;2023-08-07T00:44:59;101243.22;;;13.29;61.26
18900;BME280;9582;52.018;6.306;2023-08-07T00:47:28;101242.28;;;13.30;61.08
18900;BME280;9582;52.018;6.306;2023-08-07T00:49:55;101245.84;;;13.29;61.01
18900;BME280;9582;52.018;6.306;2023-08-07T00:52:22;101238.88;;;13.28;60.95
18900;BME280;9582;52.018;6.306;2023-08-07T00:54:49;101243.22;;;13.29;60.83
18900;BME280;9582;52.018;6.306;2023-08-07T00:57:16;101242.28;;;13.30;60.77
18900;BME280;9582;52.018;6.306;2023-08-07T00:59:48;101247.53;;;13.30;60.72
18900;BME280;9582;52.018;6.306;2023-08-07T01:02:15;101246.63;;;13.31;60.66
18900;BME280;9582;52.018;6.306;2023-08-07T01:04:43;101245.69;;;13.32;60.60
18900;BME280;9582;52.018;6.306;2023-08-07T01:07:09;101249.16;;;13.32;60.57
18900;BME280;9582;52.018;6.306;2023-08-07T01:09:36;101247.38;;;13.33;60.50
18900;BME280;9582;52.018;6.306;2023-08-07T01:12:10;101255.13;;;13.36;60.47
18900;BME280;9582;52.018;6.306;2023-08-07T01:14:48;101258.59;;;13.37;60.41
18900;BME280;9582;52.018;6.306;2023-08-07T01:17:16;101262.00;;;13.39;60.40
18900;BME280;9582;52.018;6.306;2023-08-07T01:19:44;101259.44;;;13.37;60.40
18900;BME280;9582;52.018;6.306;2023-08-07T01:22:13;101259.44;;;13.37;60.42
18900;BME280;9582;52.018;6.306;2023-08-07T01:24:42;101259.44;;;13.37;60.44
18900;BME280;9582;52.018;6.306;2023-08-07T01:27:20;101263.00;;;13.36;60.44
18900;BME280;9582;52.018;6.306;2023-08-07T01:29:56;101266.53;;;13.35;60.42
18900;BME280;9582;52.018;6.306;2023-08-07T01:32:29;101268.41;;;13.33;60.47
18900;BME280;9582;52.018;6.306;2023-08-07T01:35:01;101270.25;;;13.31;60.55
18900;BME280;9582;52.018;6.306;2023-08-07T01:37:31;101269.50;;;13.29;60.53
18900;BME280;9582;52.018;6.306;2023-08-07T01:40:00;101265.28;;;13.25;60.73
18900;BME280;9582;52.018;6.306;2023-08-07T01:42:29;101278.50;;;13.23;60.85
18900;BME280;9582;52.018;6.306;2023-08-07T01:44:55;101265.44;;;13.22;60.93
18900;BME280;9582;52.018;6.306;2023-08-07T01:47:22;101267.31;;;13.20;60.95
18900;BME280;9582;52.018;6.306;2023-08-07T01:49:49;101266.44;;;13.19;61.09
18900;BME280;9582;52.018;6.306;2023-08-07T01:52:15;101271.69;;;13.19;61.27
18900;BME280;9582;52.018;6.306;2023-08-07T01:54:43;101275.31;;;13.17;61.37
18900;BME280;9582;52.018;6.306;2023-08-07T01:57:10;101276.22;;;13.16;61.50
18900;BME280;9582;52.018;6.306;2023-08-07T01:59:36;101277.25;;;13.13;61.57
18900;BME280;9582;52.018;6.306;2023-08-07T02:02:03;101274.69;;;13.12;61.60
18900;BME280;9582;52.018;6.306;2023-08-07T02:04:30;101279.94;;;13.12;61.67
18900;BME280;9582;52.018;6.306;2023-08-07T02:06:56;101271.28;;;13.10;61.93
18900;BME280;9582;52.018;6.306;2023-08-07T02:09:23;101273.84;;;13.11;61.88
18900;BME280;9582;52.018;6.306;2023-08-07T02:11:51;101287.88;;;13.10;61.72
18900;BME280;9582;52.018;6.306;2023-08-07T02:14:17;101283.50;;;13.11;61.67
18900;BME280;9582;52.018;6.306;2023-08-07T02:16:43;101287.88;;;13.10;61.64
18900;BME280;9582;52.018;6.306;2023-08-07T02:19:11;101288.75;;;13.11;61.66
18900;BME280;9582;52.018;6.306;2023-08-07T02:21:38;101292.28;;;13.10;61.68
18900;BME280;9582;52.018;6.306;2023-08-07T02:24:04;101302.78;;;13.10;61.62
18900;BME280;9582;52.018;6.306;2023-08-07T02:26:31;101301.09;;;13.09;61.58
18900;BME280;9582;52.018;6.306;2023-08-07T02:28:59;101315.13;;;13.08;61.53
18900;BME280;9582;52.018;6.306;2023-08-07T02:31:25;101309.03;;;13.07;61.47
18900;BME280;9582;52.018;6.306;2023-08-07T02:33:53;101302.97;;;13.05;61.41
18900;BME280;9582;52.018;6.306;2023-08-07T02:36:19;101308.22;;;13.05;61.33
18900;BME280;9582;52.018;6.306;2023-08-07T02:38:46;101294.25;;;13.05;61.31
18900;BME280;9582;52.018;6.306;2023-08-07T02:41:13;101305.69;;;13.04;61.30
18900;BME280;9582;52.018;6.306;2023-08-07T02:43:39;101306.50;;;13.04;61.29
18900;BME280;9582;52.018;6.306;2023-08-07T02:46:07;101301.34;;;13.03;61.22
18900;BME280;9582;52.018;6.306;2023-08-07T02:48:34;101301.34;;;13.03;61.20
18900;BME280;9582;52.018;6.306;2023-08-07T02:51:00;101305.84;;;13.01;61.19
18900;BME280;9582;52.018;6.306;2023-08-07T02:53:27;101298.00;;;12.99;61.20
18900;BME280;9582;52.018;6.306;2023-08-07T02:55:53;101305.88;;;12.99;61.17
18900;BME280;9582;52.018;6.306;2023-08-07T02:58:20;101301.63;;;12.97;61.39
18900;BME280;9582;52.018;6.306;2023-08-07T03:00:46;101298.94;;;12.98;61.15
18900;BME280;9582;52.018;6.306;2023-08-07T03:03:14;101298.09;;;12.98;61.20
18900;BME280;9582;52.018;6.306;2023-08-07T03:05:47;101292.00;;;12.97;61.20
18900;BME280;9582;52.018;6.306;2023-08-07T03:08:14;101295.53;;;12.96;61.40
18900;BME280;9582;52.018;6.306;2023-08-07T03:10:41;101295.53;;;12.96;61.45
18900;BME280;9582;52.018;6.306;2023-08-07T03:13:07;101298.25;;;12.95;61.64
18900;BME280;9582;52.018;6.306;2023-08-07T03:15:34;101296.47;;;12.95;61.83
18900;BME280;9582;52.018;6.306;2023-08-07T03:18:00;101300.78;;;12.96;61.99
18900;BME280;9582;52.018;6.306;2023-08-07T03:20:28;101294.66;;;12.96;62.21
18900;BME280;9582;52.018;6.306;2023-08-07T03:22:55;101296.38;;;12.97;62.54
18900;BME280;9582;52.018;6.306;2023-08-07T03:25:21;101290.28;;;12.96;62.71
18900;BME280;9582;52.018;6.306;2023-08-07T03:27:48;101277.00;;;12.99;62.96
18900;BME280;9582;52.018;6.306;2023-08-07T03:30:14;101279.63;;;12.99;63.24
18900;BME280;9582;52.018;6.306;2023-08-07T03:32:41;101275.25;;;13.00;63.58
18900;BME280;9582;52.018;6.306;2023-08-07T03:35:08;101273.38;;;13.02;64.12
18900;BME280;9582;52.018;6.306;2023-08-07T03:37:36;101269.91;;;13.01;64.47
18900;BME280;9582;52.018;6.306;2023-08-07T03:40:03;101275.97;;;13.03;64.84
18900;BME280;9582;52.018;6.306;2023-08-07T03:42:31;101275.09;;;13.03;65.41
18900;BME280;9582;52.018;6.306;2023-08-07T03:44:58;101272.47;;;13.03;65.66
18900;BME280;9582;52.018;6.306;2023-08-07T03:47:24;101270.75;;;13.02;65.71
18900;BME280;9582;52.018;6.306;2023-08-07T03:49:51;101276.97;;;13.01;65.54
18900;BME280;9582;52.018;6.306;2023-08-07T03:52:17;101267.41;;;12.98;65.64
18900;BME280;9582;52.018;6.306;2023-08-07T03:54:45;101270.03;;;12.98;65.98
18900;BME280;9582;52.018;6.306;2023-08-07T03:57:12;101266.59;;;12.98;66.39
18900;BME280;9582;52.018;6.306;2023-08-07T03:59:38;101263.03;;;12.99;66.81
18900;BME280;9582;52.018;6.306;2023-08-07T04:02:05;101263.97;;;12.98;67.01
18900;BME280;9582;52.018;6.306;2023-08-07T04:04:31;101265.66;;;12.99;67.23
18900;BME280;9582;52.018;6.306;2023-08-07T04:06:58;101252.63;;;12.97;67.62
18900;BME280;9582;52.018;6.306;2023-08-07T04:09:24;101257.88;;;12.97;67.50
18900;BME280;9582;52.018;6.306;2023-08-07T04:11:53;101249.00;;;13.00;67.65
18900;BME280;9582;52.018;6.306;2023-08-07T04:14:20;101255.09;;;13.00;67.78
18900;BME280;9582;52.018;6.306;2023-08-07T04:16:46;101260.25;;;13.02;67.97
18900;BME280;9582;52.018;6.306;2023-08-07T04:19:13;101259.34;;;13.03;68.31
18900;BME280;9582;52.018;6.306;2023-08-07T04:21:40;101272.47;;;13.03;68.38
18900;BME280;9582;52.018;6.306;2023-08-07T04:24:08;101268.13;;;13.02;68.32
18900;BME280;9582;52.018;6.306;2023-08-07T04:26:36;101277.78;;;13.01;68.00
18900;BME280;9582;52.018;6.306;2023-08-07T04:29:04;101273.38;;;13.02;67.67
18900;BME280;9582;52.018;6.306;2023-08-07T04:31:30;101271.63;;;13.02;67.52
18900;BME280;9582;52.018;6.306;2023-08-07T04:33:57;101277.72;;;13.03;67.35
18900;BME280;9582;52.018;6.306;2023-08-07T04:36:23;101275.97;;;13.03;67.10
18900;BME280;9582;52.018;6.306;2023-08-07T04:38:50;101273.25;;;13.05;66.76
18900;BME280;9582;52.018;6.306;2023-08-07T04:41:17;101270.56;;;13.06;66.50
18900;BME280;9582;52.018;6.306;2023-08-07T04:43:44;101274.00;;;13.08;66.16
18900;BME280;9582;52.018;6.306;2023-08-07T04:46:12;101285.19;;;13.12;65.71
18900;BME280;9582;52.018;6.306;2023-08-07T04:48:39;101286.75;;;13.16;65.45
18900;BME280;9582;52.018;6.306;2023-08-07T04:51:06;101296.25;;;13.18;65.13
18900;BME280;9582;52.018;6.306;2023-08-07T04:53:32;101289.22;;;13.19;64.98
18900;BME280;9582;52.018;6.306;2023-08-07T04:55:59;101280.28;;;13.23;64.75
18900;BME280;9582;52.018;6.306;2023-08-07T04:58:26;101285.44;;;13.24;64.55
18900;BME280;9582;52.018;6.306;2023-08-07T05:00:55;101291.47;;;13.26;64.10
18900;BME280;9582;52.018;6.306;2023-08-07T05:03:22;101294.81;;;13.30;63.86
18900;BME280;9582;52.018;6.306;2023-08-07T05:05:49;101306.13;;;13.32;63.73
18900;BME280;9582;52.018;6.306;2023-08-07T05:08:16;108634.88;;;13.34;63.59
18900;BME280;9582;52.018;6.306;2023-08-07T05:10:42;104612.69;;;13.36;63.27
18900;BME280;9582;52.018;6.306;2023-08-07T05:13:09;104571.53;;;13.38;63.01
18900;BME280;9582;52.018;6.306;2023-08-07T05:15:35;104553.09;;;13.41;62.73
18900;BME280;9582;52.018;6.306;2023-08-07T05:18:02;104540.84;;;13.43;62.56
18900;BME280;9582;52.018;6.306;2023-08-07T05:20:30;104541.75;;;13.46;62.31
18900;BME280;9582;52.018;6.306;2023-08-07T05:22:57;104533.84;;;13.48;62.08
18900;BME280;9582;52.018;6.306;2023-08-07T05:25:23;104525.09;;;13.50;61.93
18900;BME280;9582;52.018;6.306;2023-08-07T05:27:50;104528.59;;;13.52;61.74
18900;BME280;9582;52.018;6.306;2023-08-07T05:30:16;104518.97;;;13.54;61.55
18900;BME280;9582;52.018;6.306;2023-08-07T05:32:43;104519.81;;;13.58;61.43
18900;BME280;9582;52.018;6.306;2023-08-07T05:35:09;104521.59;;;13.62;61.32
18900;BME280;9582;52.018;6.306;2023-08-07T05:37:37;104515.47;;;13.61;61.29
18900;BME280;9582;52.018;6.306;2023-08-07T05:40:05;104516.34;;;13.62;61.26
18900;BME280;9582;52.018;6.306;2023-08-07T05:42:32;104513.72;;;13.62;61.31
18900;BME280;9582;52.018;6.306;2023-08-07T05:44:59;104517.19;;;13.61;61.21
18900;BME280;9582;52.018;6.306;2023-08-07T05:47:26;104516.34;;;13.60;61.21
18900;BME280;9582;52.018;6.306;2023-08-07T05:49:52;104523.34;;;13.61;61.10
18900;BME280;9582;52.018;6.306;2023-08-07T05:52:19;104528.59;;;13.64;60.98
18900;BME280;9582;52.018;6.306;2023-08-07T05:54:47;104523.34;;;13.64;60.88
18900;BME280;9582;52.018;6.306;2023-08-07T05:57:13;104524.25;;;13.65;60.82
18900;BME280;9582;52.018;6.306;2023-08-07T05:59:40;104528.59;;;13.64;60.73
18900;BME280;9582;52.018;6.306;2023-08-07T06:02:07;104533.88;;;13.64;60.65
18900;BME280;9582;52.018;6.306;2023-08-07T06:04:36;104526.00;;;13.63;60.59
18900;BME280;9582;52.018;6.306;2023-08-07T06:07:02;104547.91;;;13.62;60.70
18900;BME280;9582;52.018;6.306;2023-08-07T06:09:29;104554.03;;;13.61;60.48
18900;BME280;9582;52.018;6.306;2023-08-07T06:11:57;104558.44;;;13.60;60.39
18900;BME280;9582;52.018;6.306;2023-08-07T06:14:23;104558.44;;;13.60;60.25
18900;BME280;9582;52.018;6.306;2023-08-07T06:16:50;104571.56;;;13.62;60.25
18900;BME280;9582;52.018;6.306;2023-08-07T06:19:17;104571.56;;;13.63;60.15
18900;BME280;9582;52.018;6.306;2023-08-07T06:21:45;104587.34;;;13.66;60.07
18900;BME280;9582;52.018;6.306;2023-08-07T06:24:11;104598.78;;;13.65;60.04
18900;BME280;9582;52.018;6.306;2023-08-07T06:26:38;104601.38;;;13.67;59.97
18900;BME280;9582;52.018;6.306;2023-08-07T06:29:06;104611.91;;;13.65;59.88
18900;BME280;9582;52.018;6.306;2023-08-07T06:31:32;104611.03;;;13.66;59.91
18900;BME280;9582;52.018;6.306;2023-08-07T06:33:59;104614.53;;;13.67;59.86
18900;BME280;9582;52.018;6.306;2023-08-07T06:36:25;104625.09;;;13.68;59.75
18900;BME280;9582;52.018;6.306;2023-08-07T06:38:52;104632.97;;;13.70;59.69
18900;BME280;9582;52.018;6.306;2023-08-07T06:41:18;104642.63;;;13.75;59.67
18900;BME280;9582;52.018;6.306;2023-08-07T06:43:45;104645.28;;;13.80;59.67
18900;BME280;9582;52.018;6.306;2023-08-07T06:46:13;104656.66;;;13.83;59.68
18900;BME280;9582;52.018;6.306;2023-08-07T06:48:39;104657.56;;;13.82;59.24
18900;BME280;9582;52.018;6.306;2023-08-07T06:51:05;104664.56;;;13.82;59.39
18900;BME280;9582;52.018;6.306;2023-08-07T06:53:32;104676.00;;;13.82;59.55
18900;BME280;9582;52.018;6.306;2023-08-07T06:55:58;104682.13;;;13.80;59.87
18900;BME280;9582;52.018;6.306;2023-08-07T06:58:25;104677.72;;;13.80;60.22
18900;BME280;9582;52.018;6.306;2023-08-07T07:00:51;104685.59;;;13.80;60.68
18900;BME280;9582;52.018;6.306;2023-08-07T07:03:19;104688.22;;;13.80;61.15
18900;BME280;9582;52.018;6.306;2023-08-07T07:05:46;104689.97;;;13.75;62.00
18900;BME280;9582;52.018;6.306;2023-08-07T07:08:12;104697.84;;;13.72;62.61
18900;BME280;9582;52.018;6.306;2023-08-07T07:10:38;104703.13;;;13.68;63.34
18900;BME280;9582;52.018;6.306;2023-08-07T07:13:05;104708.38;;;13.68;64.08
18900;BME280;9582;52.018;6.306;2023-08-07T07:15:33;104699.63;;;13.70;64.45
18900;BME280;9582;52.018;6.306;2023-08-07T07:18:00;104711.03;;;13.75;64.76
18900;BME280;9582;52.018;6.306;2023-08-07T07:20:28;104718.06;;;13.79;65.05
18900;BME280;9582;52.018;6.306;2023-08-07T07:22:55;104733.91;;;13.88;65.35
18900;BME280;9582;52.018;6.306;2023-08-07T07:25:21;104740.94;;;14.00;65.42
18900;BME280;9582;52.018;6.306;2023-08-07T07:27:47;104748.91;;;14.14;65.57
18900;BME280;9582;52.018;6.306;2023-08-07T07:30:14;104762.09;;;14.27;65.83
18900;BME280;9582;52.018;6.306;2023-08-07T07:32:40;104768.28;;;14.43;65.99
18900;BME280;9582;52.018;6.306;2023-08-07T07:35:08;104778.84;;;14.51;66.83
18900;BME280;9582;52.018;6.306;2023-08-07T07:37:36;104787.66;;;14.62;68.00
18900;BME280;9582;52.018;6.306;2023-08-07T07:40:03;104796.44;;;14.74;69.30
18900;BME280;9582;52.018;6.306;2023-08-07T07:42:30;104806.97;;;14.85;71.66
18900;BME280;9582;52.018;6.306;2023-08-07T07:44:56;104813.16;;;14.94;73.76
18900;BME280;9582;52.018;6.306;2023-08-07T07:47:23;104821.94;;;14.98;78.09
18900;BME280;9582;52.018;6.306;2023-08-07T07:50:05;104820.19;;;15.09;88.55
18900;BME280;9582;52.018;6.306;2023-08-07T07:52:32;104826.31;;;15.14;96.45
18900;BME280;9582;52.018;6.306;2023-08-07T07:55:00;104816.66;;;15.18;100.00
18900;BME280;9582;52.018;6.306;2023-08-07T07:57:27;104824.53;;;15.33;100.00
18900;BME280;9582;52.018;6.306;2023-08-07T07:59:53;104830.69;;;15.45;100.00
18900;BME280;9582;52.018;6.306;2023-08-07T08:02:20;104834.25;;;15.52;100.00
18900;BME280;9582;52.018;6.306;2023-08-07T08:04:47;104828.06;;;15.59;100.00
18900;BME280;9582;52.018;6.306;2023-08-07T08:07:14;104826.28;;;15.67;100.00
18900;BME280;9582;52.018;6.306;2023-08-07T08:09:40;104821.00;;;15.69;100.00
18900;BME280;9582;52.018;6.306;2023-08-07T08:12:09;104814.00;;;15.63;100.00
18900;BME280;9582;52.018;6.306;2023-08-07T08:14:36;104805.19;;;15.66;100.00
18900;BME280;9582;52.018;6.306;2023-08-07T08:17:02;104790.22;;;15.66;100.00
18900;BME280;9582;52.018;6.306;2023-08-07T08:19:29;104791.09;;;15.71;100.00
18900;BME280;9582;52.018;6.306;2023-08-07T08:21:55;104795.38;;;15.99;100.00
18900;BME280;9582;52.018;6.306;2023-08-07T08:24:22;104781.16;;;16.20;100.00
18900;BME280;9582;52.018;6.306;2023-08-07T08:26:48;104789.84;;;16.45;100.00
18900;BME280;9582;52.018;6.306;2023-08-07T08:29:16;104813.47;;;16.73;100.00
18900;BME280;9582;52.018;6.306;2023-08-07T08:31:42;104815.88;;;16.99;100.00
18900;BME280;9582;52.018;6.306;2023-08-07T08:34:09;104816.81;;;16.98;100.00
18900;BME280;9582;52.018;6.306;2023-08-07T08:36:35;104798.25;;;17.00;100.00
18900;BME280;9582;52.018;6.306;2023-08-07T08:39:02;104785.09;;;16.94;100.00
18900;BME280;9582;52.018;6.306;2023-08-07T08:41:30;104751.63;;;16.93;100.00
18900;BME280;9582;52.018;6.306;2023-08-07T08:43:57;104729.72;;;16.77;100.00
18900;BME280;9582;52.018;6.306;2023-08-07T08:46:28;104718.22;;;16.81;100.00
18900;BME280;9582;52.018;6.306;2023-08-07T08:48:56;104692.63;;;16.86;100.00
18900;BME280;9582;52.018;6.306;2023-08-07T08:51:24;104652.16;;;16.78;100.00
18900;BME280;9582;52.018;6.306;2023-08-07T08:53:52;104616.03;;;16.79;100.00
18900;BME280;9582;52.018;6.306;2023-08-07T08:56:19;104573.53;;;16.94;100.00
18900;BME280;9582;52.018;6.306;2023-08-07T08:58:48;104546.03;;;17.08;100.00
18900;BME280;9582;52.018;6.306;2023-08-07T09:01:16;104507.06;;;17.22;100.00
18900;BME280;9582;52.018;6.306;2023-08-07T09:03:44;104435.13;;;16.96;100.00
18900;BME280;9582;52.018;6.306;2023-08-07T09:06:12;104393.75;;;16.94;100.00
18900;BME280;9582;52.018;6.306;2023-08-07T09:08:40;104355.91;;;16.90;100.00
18900;BME280;9582;52.018;6.306;2023-08-07T09:11:10;104314.31;;;17.01;100.00
18900;BME280;9582;52.018;6.306;2023-08-07T09:13:37;104246.69;;;16.85;100.00
18900;BME280;9582;52.018;6.306;2023-08-07T09:16:04;104189.31;;;16.92;100.00
18900;BME280;9582;52.018;6.306;2023-08-07T09:18:34;104150.53;;;17.37;100.00
18900;BME280;9582;52.018;6.306;2023-08-07T09:21:02;104100.97;;;17.46;100.00
18900;BME280;9582;52.018;6.306;2023-08-07T09:23:29;104053.22;;;17.51;100.00
18900;BME280;9582;52.018;6.306;2023-08-07T09:25:59;103977.28;;;17.53;100.00
18900;BME280;9582;52.018;6.306;2023-08-07T09:28:26;103905.47;;;17.69;100.00
18900;BME280;9582;52.018;6.306;2023-08-07T09:30:52;103821.38;;;17.79;100.00
18900;BME280;9582;52.018;6.306;2023-08-07T09:33:24;103754.84;;;17.91;100.00
18900;BME280;9582;52.018;6.306;2023-08-07T09:35:50;103678.72;;;17.99;100.00
18900;BME280;9582;52.018;6.306;2023-08-07T09:38:18;103596.25;;;18.11;100.00
18900;BME280;9582;52.018;6.306;2023-08-07T09:40:45;103530.66;;;18.18;100.00
18900;BME280;9582;52.018;6.306;2023-08-07T09:43:20;103467.59;;;18.29;100.00
18900;BME280;9582;52.018;6.306;2023-08-07T09:45:48;103394.81;;;18.39;100.00
18900;BME280;9582;52.018;6.306;2023-08-07T09:48:21;103301.78;;;18.23;100.00
18900;BME280;9582;52.018;6.306;2023-08-07T09:50:48;103252.78;;;18.58;100.00
18900;BME280;9582;52.018;6.306;2023-08-07T09:53:15;103204.03;;;18.84;100.00
18900;BME280;9582;52.018;6.306;2023-08-07T09:55:43;103130.56;;;18.86;100.00
18900;BME280;9582;52.018;6.306;2023-08-07T09:58:12;103045.06;;;19.01;100.00
18900;BME280;9582;52.018;6.306;2023-08-07T10:00:39;103002.38;;;18.68;100.00
18900;BME280;9582;52.018;6.306;2023-08-07T10:03:06;102955.09;;;18.78;100.00
18900;BME280;9582;52.018;6.306;2023-08-07T10:05:33;102912.03;;;18.73;100.00
18900;BME280;9582;52.018;6.306;2023-08-07T10:08:00;102819.56;;;18.28;100.00
18900;BME280;9582;52.018;6.306;2023-08-07T10:10:27;102756.72;;;18.31;100.00
18900;BME280;9582;52.018;6.306;2023-08-07T10:12:56;102726.94;;;18.26;100.00
18900;BME280;9582;52.018;6.306;2023-08-07T10:15:25;102696.53;;;18.54;100.00
18900;BME280;9582;52.018;6.306;2023-08-07T10:17:51;102665.47;;;18.74;100.00
18900;BME280;9582;52.018;6.306;2023-08-07T10:20:18;102650.59;;;18.89;100.00
18900;BME280;9582;52.018;6.306;2023-08-07T10:22:46;102620.50;;;18.90;100.00
18900;BME280;9582;52.018;6.306;2023-08-07T10:25:13;102572.06;;;19.03;100.00
18900;BME280;9582;52.018;6.306;2023-08-07T10:27:41;102556.91;;;19.06;100.00
18900;BME280;9582;52.018;6.306;2023-08-07T10:30:11;102522.28;;;19.09;100.00
18900;BME280;9582;52.018;6.306;2023-08-07T10:32:41;102510.00;;;19.23;100.00
18900;BME280;9582;52.018;6.306;2023-08-07T10:35:09;102493.44;;;19.51;100.00
18900;BME280;9582;52.018;6.306;2023-08-07T10:37:39;102482.44;;;19.26;100.00
18900;BME280;9582;52.018;6.306;2023-08-07T10:40:07;102475.63;;;19.22;100.00
18900;BME280;9582;52.018;6.306;2023-08-07T10:43:01;102466.47;;;19.27;100.00
18900;BME280;9582;52.018;6.306;2023-08-07T10:45:38;102471.59;;;19.30;100.00
18900;BME280;9582;52.018;6.306;2023-08-07T10:48:05;102452.47;;;19.08;100.00
18900;BME280;9582;52.018;6.306;2023-08-07T10:50:33;102447.34;;;18.57;100.00
18900;BME280;9582;52.018;6.306;2023-08-07T10:53:01;102434.69;;;18.62;100.00
18900;BME280;9582;52.018;6.306;2023-08-07T10:55:31;102504.41;;;18.96;100.00
18900;BME280;9582;52.018;6.306;2023-08-07T10:58:21;102514.06;;;18.80;100.00
18900;BME280;9582;52.018;6.306;2023-08-07T11:00:50;102514.88;;;18.65;100.00
18900;BME280;9582;52.018;6.306;2023-08-07T11:03:25;102513.47;;;18.58;100.00
18900;BME280;9582;52.018;6.306;2023-08-07T11:05:52;102520.81;;;18.53;100.00
18900;BME280;9582;52.018;6.306;2023-08-07T11:08:21;102512.25;;;18.29;100.00
18900;BME280;9582;52.018;6.306;2023-08-07T11:10:50;102501.03;;;18.07;100.00
18900;BME280;9582;52.018;6.306;2023-08-07T11:13:16;102492.19;;;17.89;100.00
18900;BME280;9582;52.018;6.306;2023-08-07T11:15:43;102478.63;;;18.14;100.00
18900;BME280;9582;52.018;6.306;2023-08-07T11:18:11;102467.13;;;18.50;100.00
18900;BME280;9582;52.018;6.306;2023-08-07T11:20:38;102467.53;;;18.40;100.00
18900;BME280;9582;52.018;6.306;2023-08-07T11:23:05;102452.69;;;18.55;100.00
18900;BME280;9582;52.018;6.306;2023-08-07T11:25:31;102451.16;;;18.51;100.00
18900;BME280;9582;52.018;6.306;2023-08-07T11:27:58;102446.19;;;18.43;100.00
18900;BME280;9582;52.018;6.306;2023-08-07T11:30:24;102437.88;;;18.34;100.00
18900;BME280;9582;52.018;6.306;2023-08-07T11:32:51;102427.38;;;18.15;100.00
18900;BME280;9582;52.018;6.306;2023-08-07T11:35:19;102425.72;;;18.13;100.00
18900;BME280;9582;52.018;6.306;2023-08-07T11:37:47;102430.41;;;18.08;100.00
18900;BME280;9582;52.018;6.306;2023-08-07T11:40:13;102431.28;;;18.08;100.00
18900;BME280;9582;52.018;6.306;2023-08-07T11:42:40;102426.34;;;18.35;100.00
18900;BME280;9582;52.018;6.306;2023-08-07T11:45:08;102426.59;;;18.65;100.00
18900;BME280;9582;52.018;6.306;2023-08-07T11:47:35;102421.50;;;18.93;100.00
18900;BME280;9582;52.018;6.306;2023-08-07T11:50:01;102413.72;;;18.90;100.00
18900;BME280;9582;52.018;6.306;2023-08-07T11:52:30;102403.81;;;19.09;100.00
18900;BME280;9582;52.018;6.306;2023-08-07T11:54:57;102386.81;;;19.13;100.00
18900;BME280;9582;52.018;6.306;2023-08-07T11:57:24;102375.75;;;19.21;100.00
18900;BME280;9582;52.018;6.306;2023-08-07T11:59:51;102349.88;;;19.41;100.00
18900;BME280;9582;52.018;6.306;2023-08-07T12:02:22;102362.09;;;19.44;100.00
18900;BME280;9582;52.018;6.306;2023-08-07T12:04:50;102351.19;;;19.48;100.00
18900;BME280;9582;52.018;6.306;2023-08-07T12:07:17;102350.69;;;19.42;100.00
18900;BME280;9582;52.018;6.306;2023-08-07T12:09:47;102348.81;;;19.28;100.00
18900;BME280;9582;52.018;6.306;2023-08-07T12:12:14;102350.00;;;19.54;100.00
18900;BME280;9582;52.018;6.306;2023-08-07T12:14:40;102356.44;;;19.80;100.00
18900;BME280;9582;52.018;6.306;2023-08-07T12:17:08;102355.47;;;19.51;100.00
18900;BME280;9582;52.018;6.306;2023-08-07T12:19:36;102344.72;;;19.38;100.00
18900;BME280;9582;52.018;6.306;2023-08-07T12:22:06;102357.63;;;19.29;100.00
18900;BME280;9582;52.018;6.306;2023-08-07T12:24:34;102359.50;;;19.11;100.00
18900;BME280;9582;52.018;6.306;2023-08-07T12:27:02;102360.38;;;19.12;100.00
18900;BME280;9582;52.018;6.306;2023-08-07T12:29:29;102367.81;;;18.89;100.00
18900;BME280;9582;52.018;6.306;2023-08-07T12:31:55;102371.84;;;18.64;100.00
18900;BME280;9582;52.018;6.306;2023-08-07T12:34:24;102380.84;;;18.44;100.00
18900;BME280;9582;52.018;6.306;2023-08-07T12:36:50;102382.81;;;18.23;100.00
18900;BME280;9582;52.018;6.306;2023-08-07T12:39:17;102393.91;;;18.14;100.00
18900;BME280;9582;52.018;6.306;2023-08-07T12:41:43;102392.19;;;18.13;100.00
18900;BME280;9582;52.018;6.306;2023-08-07T12:44:11;102389.50;;;18.48;100.00
18900;BME280;9582;52.018;6.306;2023-08-07T12:46:38;102383.16;;;18.83;100.00
18900;BME280;9582;52.018;6.306;2023-08-07T12:49:08;102387.75;;;19.12;100.00
18900;BME280;9582;52.018;6.306;2023-08-07T12:51:34;102382.28;;;19.15;100.00
18900;BME280;9582;52.018;6.306;2023-08-07T12:54:01;102382.34;;;18.98;100.00
18900;BME280;9582;52.018;6.306;2023-08-07T12:56:27;102382.88;;;19.20;100.00